Time;durP1;ratioP1;P1;durP2;ratioP2;P2;SDS_P1;SDS_P2;PMS_P1;PMS_P2;Temp;Humidity;BMP_temperature;BMP_pressure;BME280_temperature;BME280_humidity;BME280_pressure;Samples;Min_cycle;Max_cycle;Signal;HPM_P1;HPM_P2
2023/06/10 00:00:12;;;;;;;9.98;7.05;;;;;;;-143.21;78.46;71348.47;5073469;28;20300;-77
2023/06/10 00:02:39;;;;;;;11.52;6.82;;;;;;;-143.21;78.67;71354.41;5057864;28;20331;-77
2023/06/10 00:05:07;;;;;;;9.00;7.15;;;;;;;-143.21;78.81;71350.44;5053179;28;20653;-77
2023/06/10 00:07:37;;;;;;;9.13;6.88;;;;;;;-143.21;78.66;71354.41;5053342;28;20206;-78
2023/06/10 00:10:05;;;;;;;13.52;6.70;;;;;;;-143.21;78.55;71356.38;5053431;28;20195;-78
2023/06/10 00:12:38;;;;;;;9.48;6.95;;;;;;;-143.21;78.46;71360.34;5053260;28;20218;-78
2023/06/10 00:15:06;;;;;;;11.77;7.40;;;;;;;-143.21;78.64;71362.34;5052651;28;20606;-78
2023/06/10 00:17:32;;;;;;;9.50;7.30;;;;;;;-143.21;79.06;71370.28;5053228;28;20622;-78
2023/06/10 00:19:59;;;;;;;9.52;6.82;;;;;;;-143.21;78.96;71366.31;5052687;28;20194;-78
2023/06/10 00:22:29;;;;;;;10.65;6.93;;;;;;;-143.21;79.08;71370.28;5058967;28;20197;-78
2023/06/10 00:24:57;;;;;;;10.77;6.80;;;;;;;-143.21;79.21;71372.25;5072961;28;20190;-78
2023/06/10 00:27:24;;;;;;;8.73;6.65;;;;;;;-143.21;79.28;71374.22;5072765;28;20193;-77
2023/06/10 00:29:51;;;;;;;12.45;7.60;;;;;;;-143.21;79.45;71380.19;5072684;28;20569;-77
2023/06/10 00:32:33;;;;;;;9.57;7.05;;;;;;;-143.21;79.70;71386.13;5072816;28;20637;-77
2023/06/10 00:35:00;;;;;;;13.60;7.70;;;;;;;-143.21;79.99;71390.09;5073008;28;20201;-78
2023/06/10 00:37:28;;;;;;;21.38;12.15;;;;;;;-143.21;80.07;71394.06;5072187;28;20202;-77
2023/06/10 00:39:57;;;;;;;18.73;11.55;;;;;;;-143.21;80.47;71403.97;5072696;28;20332;-76
2023/06/10 00:42:24;;;;;;;19.00;11.50;;;;;;;-143.21;81.21;71415.88;5073056;28;20196;-76
2023/06/10 00:44:51;;;;;;;15.55;10.20;;;;;;;-143.21;81.67;71415.88;5072684;28;20190;-77
2023/06/10 00:47:18;;;;;;;18.63;9.15;;;;;;;-143.21;82.10;71415.88;5072610;28;20197;-77
2023/06/10 00:49:46;;;;;;;13.27;9.73;;;;;;;-143.21;82.18;71427.75;5072505;28;20652;-77
2023/06/10 00:52:14;;;;;;;13.90;9.98;;;;;;;-143.21;82.65;71427.75;5072087;28;20235;-77
2023/06/10 00:54:41;;;;;;;16.50;10.73;;;;;;;-143.21;83.02;71431.72;5072465;28;20229;-77
2023/06/10 00:57:10;;;;;;;15.85;10.15;;;;;;;-143.21;83.45;71433.72;5072845;28;20198;-77
2023/06/10 00:59:37;;;;;;;12.20;9.73;;;;;;;-143.21;83.63;71439.66;5072434;28;20785;-77
2023/06/10 01:02:05;;;;;;;13.32;9.60;;;;;;;-143.21;84.23;71461.47;5072346;28;20271;-77
2023/06/10 01:04:31;;;;;;;14.77;9.65;;;;;;;-143.21;85.55;71487.25;5072322;28;20287;-77
2023/06/10 01:07:07;;;;;;;16.48;9.23;;;;;;;-143.21;86.30;71499.13;5072433;28;20197;-77
2023/06/10 01:09:43;;;;;;;13.63;9.23;;;;;;;-143.21;86.97;71509.06;5072307;28;20213;-77
2023/06/10 01:12:24;;;;;;;13.10;9.55;;;;;;;-143.21;87.40;71513.03;5072532;28;20190;-78
2023/06/10 01:14:52;;;;;;;11.85;9.40;;;;;;;-143.21;87.70;71516.97;5071885;28;20201;-77
2023/06/10 01:17:19;;;;;;;16.55;9.73;;;;;;;-143.21;87.31;71507.06;5072075;28;20199;-77
2023/06/10 01:19:55;;;;;;;16.05;9.60;;;;;;;-143.21;86.57;71495.19;5072271;28;20189;-77
2023/06/10 01:22:24;;;;;;;12.05;9.13;;;;;;;-143.21;86.69;71499.13;5072172;28;20197;-77
2023/06/10 01:24:51;;;;;;;13.60;9.20;;;;;;;-143.21;86.59;71493.19;5072115;28;20683;-78
2023/06/10 01:27:22;;;;;;;11.27;8.70;;;;;;;-143.21;86.80;71485.25;5072099;28;20561;-77
2023/06/10 01:29:55;;;;;;;17.67;9.45;;;;;;;-143.21;86.48;71471.38;5072333;28;20623;-77
2023/06/10 01:32:29;;;;;;;12.93;9.30;;;;;;;-143.21;86.03;71473.38;5071690;28;20236;-76
2023/06/10 01:34:58;;;;;;;12.88;9.38;;;;;;;-143.21;86.13;71477.34;5071320;28;20654;-77
2023/06/10 01:37:27;;;;;;;14.23;9.15;;;;;;;-143.21;86.34;71481.28;5071234;28;20631;-77
2023/06/10 01:39:58;;;;;;;11.85;8.57;;;;;;;-143.21;86.73;71479.31;5071264;28;20201;-78
2023/06/10 01:42:26;;;;;;;10.02;8.85;;;;;;;-143.21;87.00;71487.25;5071187;28;20197;-78
2023/06/10 01:44:53;;;;;;;13.25;8.82;;;;;;;-143.21;86.83;71477.34;5071928;28;20194;-77
2023/06/10 01:47:20;;;;;;;14.30;8.98;;;;;;;-143.21;86.85;71469.41;5071583;28;20198;-77
2023/06/10 01:49:47;;;;;;;11.98;8.35;;;;;;;-143.21;86.90;71463.44;5071921;28;20197;-76
2023/06/10 01:52:14;;;;;;;11.13;8.82;;;;;;;-143.21;86.69;71463.44;5070922;28;20207;-77
2023/06/10 01:54:42;;;;;;;13.43;8.57;;;;;;;-143.21;85.88;71453.53;5071521;28;20723;-77
2023/06/10 01:57:09;;;;;;;12.85;8.70;;;;;;;-143.21;85.97;71449.56;5071355;28;20204;-77
2023/06/10 01:59:37;;;;;;;16.15;9.23;;;;;;;-143.21;85.93;71449.56;5071278;28;20206;-77
2023/06/10 02:02:05;;;;;;;12.75;7.97;;;;;;;-143.21;85.83;71445.59;5071395;28;20251;-77
2023/06/10 02:04:31;;;;;;;12.18;8.40;;;;;;;-143.21;85.87;71443.63;5071330;28;20186;-77
2023/06/10 02:06:58;;;;;;;12.88;8.43;;;;;;;-143.21;85.96;71447.59;5071103;28;20198;-77
2023/06/10 02:09:26;;;;;;;13.27;7.93;;;;;;;-143.21;85.72;71437.69;5071239;28;20198;-77
2023/06/10 02:11:54;;;;;;;10.75;8.02;;;;;;;-143.21;85.54;71433.72;5071153;28;20911;-77
2023/06/10 02:14:21;;;;;;;11.65;8.02;;;;;;;-143.21;85.14;71433.72;5070506;28;20240;-77
2023/06/10 02:16:48;;;;;;;13.00;8.45;;;;;;;-143.21;85.23;71435.69;5071697;28;20193;-78
2023/06/10 02:19:15;;;;;;;12.13;7.93;;;;;;;-143.21;85.02;71431.72;5070953;28;20205;-77
2023/06/10 02:21:41;;;;;;;11.73;7.65;;;;;;;-143.21;85.22;71431.72;5070562;28;20204;-78
2023/06/10 02:24:09;;;;;;;10.43;7.55;;;;;;;-143.21;85.23;71423.78;5070840;28;20193;-77
2023/06/10 02:26:35;;;;;;;12.20;7.55;;;;;;;-143.21;85.30;71419.84;5071125;28;20201;-77
2023/06/10 02:29:03;;;;;;;15.27;7.85;;;;;;;-143.21;85.35;71407.94;5071037;28;20197;-78
2023/06/10 02:31:30;;;;;;;14.02;7.38;;;;;;;-143.21;85.14;71392.06;5070773;28;20225;-78
2023/06/10 02:33:57;;;;;;;17.92;7.93;;;;;;;-143.21;85.01;71388.09;5070654;28;20193;-78
2023/06/10 02:36:24;;;;;;;12.70;7.55;;;;;;;-143.21;84.87;71390.09;5070669;28;20198;-78
2023/06/10 02:38:51;;;;;;;14.80;7.85;;;;;;;-143.21;84.37;71386.13;5071083;28;20285;-78
2023/06/10 02:41:18;;;;;;;8.35;7.40;;;;;;;-143.21;84.44;71374.22;5070738;28;20597;-79
2023/06/10 02:43:44;;;;;;;10.18;7.35;;;;;;;-143.21;83.51;71362.34;5070652;28;20197;-78
2023/06/10 02:46:13;;;;;;;9.65;7.00;;;;;;;-143.21;83.06;71360.34;5049904;28;20676;-77
2023/06/10 02:48:43;;;;;;;11.18;7.38;;;;;;;-143.21;82.51;71354.41;5039144;28;20206;-77
2023/06/10 02:51:10;;;;;;;10.65;7.75;;;;;;;-143.21;82.80;71350.44;5049784;28;20194;-79
2023/06/10 02:53:37;;;;;;;11.38;7.78;;;;;;;-143.21;82.71;71344.50;5066428;28;20213;-77
2023/06/10 02:56:04;;;;;;;8.48;6.97;;;;;;;-143.21;83.28;71340.53;5069955;28;20803;-77
2023/06/10 02:58:31;;;;;;;11.50;7.40;;;;;;;-143.21;81.84;71342.50;5070997;28;20193;-77
2023/06/10 03:00:58;;;;;;;10.70;7.78;;;;;;;-143.21;83.06;71340.53;5070262;28;20185;-78
2023/06/10 03:03:27;;;;;;;10.90;8.00;;;;;;;-143.21;84.94;71336.56;5070817;28;20255;-77
2023/06/10 03:05:54;;;;;;;11.35;7.30;;;;;;;-143.21;85.62;71340.53;5070477;28;20288;-77
2023/06/10 03:08:21;;;;;;;9.15;7.80;;;;;;;-143.21;86.30;71346.47;5070631;28;20588;-76
2023/06/10 03:10:47;;;;;;;17.80;10.32;;;;;;;-143.21;86.67;71358.38;5070580;28;20193;-76
2023/06/10 03:13:15;;;;;;;15.02;10.55;;;;;;;-143.21;87.30;71364.31;5070683;28;20193;-77
2023/06/10 03:15:42;;;;;;;13.55;9.88;;;;;;;-143.21;87.74;71350.44;5069924;28;20217;-77
2023/06/10 03:18:09;;;;;;;13.65;9.30;;;;;;;-143.21;87.58;71354.41;5069778;28;20193;-77
2023/06/10 03:20:37;;;;;;;16.88;9.45;;;;;;;-143.21;88.02;71372.25;5069293;28;20669;-77
2023/06/10 03:23:06;;;;;;;15.10;9.45;;;;;;;-143.21;88.16;71388.09;5070082;28;20197;-77
2023/06/10 03:25:33;;;;;;;11.13;9.15;;;;;;;-143.21;88.56;71405.94;5070229;28;20672;-78
2023/06/10 03:27:59;;;;;;;14.02;8.93;;;;;;;-143.21;88.52;71407.94;5069993;28;20196;-78
2023/06/10 03:30:28;;;;;;;12.82;9.30;;;;;;;-143.21;88.66;71415.88;5070008;28;20204;-78
2023/06/10 03:32:55;;;;;;;12.70;9.20;;;;;;;-143.21;88.92;71423.78;5070177;28;20224;-77
2023/06/10 03:35:22;;;;;;;12.00;9.57;;;;;;;-143.21;88.81;71415.88;5069562;28;20761;-77
2023/06/10 03:37:50;;;;;;;11.27;9.32;;;;;;;-143.21;89.07;71413.88;5069620;28;20197;-78
2023/06/10 03:40:17;;;;;;;11.40;8.93;;;;;;;-143.21;89.19;71405.94;5070115;28;20201;-78
2023/06/10 03:42:44;;;;;;;15.48;9.75;;;;;;;-143.21;89.32;71409.91;5070053;28;20189;-78
2023/06/10 03:45:12;;;;;;;17.40;9.55;;;;;;;-143.21;89.63;71413.88;5070091;28;20216;-78
2023/06/10 03:47:40;;;;;;;11.35;9.13;;;;;;;-143.21;90.20;71419.84;5070176;28;20194;-78
2023/06/10 03:50:08;;;;;;;12.82;9.93;;;;;;;-143.21;90.25;71411.91;5069700;28;20251;-78
2023/06/10 03:52:36;;;;;;;12.32;9.60;;;;;;;-143.21;90.15;71407.94;5069590;28;20217;-79
2023/06/10 03:55:05;;;;;;;12.88;9.40;;;;;;;-143.21;89.70;71402.00;5069481;28;20807;-79
2023/06/10 03:57:31;;;;;;;15.52;9.73;;;;;;;-143.21;89.76;71398.03;5070231;28;20224;-78
2023/06/10 03:59:59;;;;;;;15.55;9.68;;;;;;;-143.21;89.59;71400.00;5069840;28;20691;-79
2023/06/10 04:02:26;;;;;;;13.90;9.25;;;;;;;-143.21;89.64;71402.00;5069691;28;20189;-79
2023/06/10 04:04:52;;;;;;;13.93;9.65;;;;;;;-143.21;89.53;71396.03;5069856;28;20221;-78
2023/06/10 04:07:20;;;;;;;13.13;9.43;;;;;;;-143.21;89.34;71392.06;5072126;28;20696;-78
2023/06/10 04:09:47;;;;;;;15.25;8.63;;;;;;;-143.21;89.36;71396.03;5072832;28;20743;-78
2023/06/10 04:12:16;;;;;;;14.23;8.88;;;;;;;-143.21;89.24;71400.00;5073550;28;20215;-78
2023/06/10 04:14:43;;;;;;;13.02;9.10;;;;;;;-143.21;89.34;71407.94;5073276;28;20252;-78
2023/06/10 04:17:13;;;;;;;11.13;8.52;;;;;;;-143.21;89.58;71407.94;5073449;28;20193;-78
2023/06/10 04:19:40;;;;;;;16.10;8.98;;;;;;;-143.21;88.90;71407.94;5073108;28;20193;-77
2023/06/10 04:22:07;;;;;;;12.35;8.52;;;;;;;-143.21;88.50;71415.88;5072532;28;20551;-78
2023/06/10 04:24:34;;;;;;;12.65;8.80;;;;;;;-143.21;88.27;71403.97;5073033;28;20232;-77
2023/06/10 04:27:01;;;;;;;12.52;9.15;;;;;;;-143.21;88.41;71402.00;5073623;28;20197;-77
2023/06/10 04:29:29;;;;;;;13.60;9.05;;;;;;;-143.21;88.53;71400.00;5072846;28;20614;-77
2023/06/10 04:31:55;;;;;;;11.40;9.15;;;;;;;-143.21;88.93;71396.03;5072949;28;20229;-77
2023/06/10 04:34:22;;;;;;;15.80;9.48;;;;;;;-143.21;89.60;71396.03;5072978;28;20200;-79
2023/06/10 04:36:50;;;;;;;13.25;9.30;;;;;;;-143.21;88.94;71390.09;5072828;28;20259;-77
2023/06/10 04:39:18;;;;;;;12.75;8.63;;;;;;;-143.21;89.28;71390.09;5072536;28;20292;-77
2023/06/10 04:41:47;;;;;;;15.07;9.57;;;;;;;-143.21;88.58;71388.09;5073050;28;20272;-77
2023/06/10 04:44:14;;;;;;;18.80;9.55;;;;;;;-143.21;88.31;71388.09;5072738;28;20197;-77
2023/06/10 04:46:42;;;;;;;11.68;9.15;;;;;;;-143.21;88.62;71388.09;5072586;28;20201;-77
2023/06/10 04:49:08;;;;;;;15.32;9.38;;;;;;;-143.21;87.57;71390.09;5072825;28;20197;-77
2023/06/10 04:51:35;;;;;;;10.93;8.80;;;;;;;-143.21;87.22;71384.16;5072556;28;20201;-78
2023/06/10 04:54:03;;;;;;;15.80;8.63;;;;;;;-143.21;87.09;71390.09;5072497;28;20202;-78
2023/06/10 04:56:30;;;;;;;14.02;8.85;;;;;;;-143.21;87.22;71382.16;5072624;28;20256;-78
2023/06/10 04:58:57;;;;;;;11.75;9.32;;;;;;;-143.21;87.32;71384.16;5073014;28;20193;-78
2023/06/10 05:01:24;;;;;;;16.33;9.50;;;;;;;-143.21;87.55;71392.06;5072632;28;20545;-78
2023/06/10 05:03:53;;;;;;;13.63;9.23;;;;;;;-143.21;88.22;71398.03;5072495;28;20197;-78
2023/06/10 05:06:19;;;;;;;15.52;9.57;;;;;;;-143.21;88.38;71403.97;5072643;28;20193;-78
2023/06/10 05:08:46;;;;;;;10.98;9.23;;;;;;;-143.21;88.11;71400.00;5072567;28;20200;-78
2023/06/10 05:11:13;;;;;;;14.43;9.35;;;;;;;-143.21;87.90;71394.06;5072595;28;20201;-78
2023/06/10 05:13:40;;;;;;;13.88;9.80;;;;;;;-143.21;87.54;71394.06;5072418;28;20660;-77
2023/06/10 05:16:07;;;;;;;13.63;9.43;;;;;;;-143.21;87.35;71390.09;5071702;28;20221;-78
2023/06/10 05:18:35;;;;;;;11.75;9.18;;;;;;;-143.21;87.69;71392.06;5030949;28;20195;-78
2023/06/10 05:21:03;;;;;;;15.80;10.20;;;;;;;-143.21;87.79;71409.91;5032491;28;20277;-78
2023/06/10 05:23:30;;;;;;;15.77;10.70;;;;;;;-143.21;88.15;71409.91;5062169;28;20688;-78
2023/06/10 05:25:58;;;;;;;18.30;13.82;;;;;;;-143.21;88.40;71415.88;5071231;28;20185;-78
2023/06/10 05:28:25;;;;;;;19.52;16.23;;;;;;;-143.21;88.65;71407.94;5071949;28;20225;-77
2023/06/10 05:30:52;;;;;;;18.70;14.05;;;;;;;-143.21;88.07;71409.91;5071771;28;20193;-78
2023/06/10 05:33:19;;;;;;;29.77;20.95;;;;;;;-143.21;87.22;71405.94;5072274;28;20189;-79
2023/06/10 05:35:48;;;;;;;57.25;41.80;;;;;;;-143.21;87.44;71403.97;5072257;28;20256;-80
2023/06/10 05:38:26;;;;;;;30.42;20.73;;;;;;;-143.21;87.23;71407.94;5071471;28;20623;-80
2023/06/10 05:40:53;;;;;;;18.73;12.73;;;;;;;-143.21;86.96;71411.91;5071296;28;20680;-78
2023/06/10 05:43:19;;;;;;;18.52;11.68;;;;;;;-143.21;87.68;71415.88;5071300;28;20198;-78
2023/06/10 05:45:56;;;;;;;12.85;10.43;;;;;;;-143.21;87.43;71403.97;5071477;28;20201;-78
2023/06/10 05:48:23;;;;;;;9.23;7.78;;;;;;;-143.21;85.33;71413.88;5058735;28;20578;-78
2023/06/10 05:50:50;;;;;;;14.95;9.05;;;;;;;-143.21;85.36;71415.88;5051095;28;20221;-78
2023/06/10 05:53:16;;;;;;;12.38;8.80;;;;;;;-143.21;86.12;71417.84;5059762;28;20202;-78
2023/06/10 05:55:46;;;;;;;13.43;8.68;;;;;;;-143.21;86.66;71415.88;5051800;28;20213;-77
2023/06/10 05:58:13;;;;;;;8.88;7.10;;;;;;;-143.21;87.64;71392.06;5051231;28;20198;-77
2023/06/10 06:00:40;;;;;;;11.73;7.70;;;;;;;-143.21;87.01;71390.09;5051362;28;20230;-78
2023/06/10 06:03:08;;;;;;;12.40;7.55;;;;;;;-143.21;87.17;71374.22;5051343;28;20194;-79
2023/06/10 06:05:37;;;;;;;10.85;7.85;;;;;;;-143.21;86.48;71360.34;5051394;28;20271;-78
2023/06/10 06:08:04;;;;;;;11.60;7.95;;;;;;;-143.21;83.85;71352.44;5050852;28;20233;-79
2023/06/10 06:10:31;;;;;;;14.35;8.32;;;;;;;-143.21;84.41;71364.31;5051139;28;20202;-78
2023/06/10 06:13:00;;;;;;;12.30;7.53;;;;;;;-143.21;85.35;71380.19;5051122;28;20934;-81
2023/06/10 06:15:27;;;;;;;9.82;8.00;;;;;;;-143.21;85.78;71380.19;5050868;28;20241;-81
2023/06/10 06:17:54;;;;;;;9.77;7.82;;;;;;;-143.21;85.72;71378.19;5051622;28;20259;-80
2023/06/10 06:20:21;;;;;;;11.02;8.05;;;;;;;-143.21;85.80;71384.16;5050961;28;20186;-78
2023/06/10 06:22:47;;;;;;;12.70;7.93;;;;;;;-143.21;85.87;71378.19;5060162;28;20205;-78
2023/06/10 06:25:14;;;;;;;10.23;8.15;;;;;;;-143.21;86.25;71366.31;5071172;28;20200;-79
2023/06/10 06:27:41;;;;;;;9.15;8.07;;;;;;;-143.21;85.62;71358.38;5070438;28;20200;-79
2023/06/10 06:30:10;;;;;;;10.57;8.15;;;;;;;-143.21;85.17;71346.47;5070519;28;20198;-78
2023/06/10 06:32:38;;;;;;;13.65;9.00;;;;;;;-143.21;84.85;71328.63;5060101;28;20230;-79
2023/06/10 06:35:07;;;;;;;12.95;8.73;;;;;;;-143.21;84.51;71318.72;5050512;28;20198;-78
2023/06/10 06:37:34;;;;;;;16.50;10.63;;;;;;;-143.21;84.25;71336.56;5050410;28;20210;-79
2023/06/10 06:40:03;;;;;;;17.42;9.68;;;;;;;-143.21;84.57;71318.72;5049797;28;20746;-79
2023/06/10 06:42:30;;;;;;;12.85;8.60;;;;;;;-143.21;84.02;71304.84;5050891;28;20190;-81
2023/06/10 06:44:56;;;;;;;13.50;7.47;;;;;;;-143.21;83.39;71296.91;5051381;28;20688;-81
2023/06/10 06:47:26;;;;;;;10.27;7.78;;;;;;;-143.21;82.37;71292.94;5052480;28;20653;-82
2023/06/10 06:49:53;;;;;;;14.77;7.97;;;;;;;-143.21;81.75;71287.00;5055155;28;20297;-81
2023/06/10 06:52:19;;;;;;;9.75;6.97;;;;;;;-143.21;81.51;71277.09;5057143;28;20197;-79
2023/06/10 06:54:46;;;;;;;9.98;6.65;;;;;;;-143.21;80.60;71273.13;5067032;28;20232;-80
2023/06/10 06:57:13;;;;;;;14.93;6.95;;;;;;;-143.21;80.63;71263.22;5051565;28;20218;-82
2023/06/10 06:59:40;;;;;;;14.25;7.63;;;;;;;-143.21;80.20;71253.28;5052250;28;20217;-82
2023/06/10 07:02:07;;;;;;;10.50;7.50;;;;;;;-143.21;79.80;71241.41;5051634;28;20225;-80
2023/06/10 07:04:35;;;;;;;11.00;7.70;;;;;;;-143.21;79.37;71235.44;5051574;28;20201;-81
2023/06/10 07:07:02;;;;;;;10.57;7.28;;;;;;;-143.21;78.98;71241.41;5050882;28;20202;-79
2023/06/10 07:09:29;;;;;;;10.85;7.05;;;;;;;-143.21;79.70;71261.22;5050646;28;20198;-81
2023/06/10 07:11:56;;;;;;;10.02;7.57;;;;;;;-143.21;80.29;71261.22;5051213;28;20253;-81
2023/06/10 07:14:23;;;;;;;15.38;6.70;;;;;;;-143.21;79.74;71239.41;5050686;28;20576;-78
2023/06/10 07:16:50;;;;;;;10.98;6.63;;;;;;;-143.21;79.52;71217.59;5050609;28;20236;-81
2023/06/10 07:19:17;;;;;;;8.25;6.60;;;;;;;-143.21;78.62;71221.56;5050416;28;20197;-81
2023/06/10 07:21:45;;;;;;;9.23;6.80;;;;;;;-143.21;79.39;71221.56;5050931;28;20284;-81
2023/06/10 07:24:12;;;;;;;12.27;6.60;;;;;;;-143.21;79.40;71197.78;5070761;28;20309;-82
2023/06/10 07:26:38;;;;;;;9.48;6.57;;;;;;;-143.21;77.69;71181.94;5070806;28;20247;-82
2023/06/10 07:29:05;;;;;;;9.15;6.00;;;;;;;-143.21;71.38;71174.00;5070542;28;20197;-82
2023/06/10 07:31:32;;;;;;;9.65;5.68;;;;;;;-143.21;71.44;71154.16;5070809;28;20232;-82
2023/06/10 07:33:59;;;;;;;8.05;5.72;;;;;;;-143.21;69.41;71136.31;5070589;28;20663;-82
2023/06/10 07:36:27;;;;;;;8.88;6.45;;;;;;;-143.21;70.13;71138.31;5070657;28;20217;-81
2023/06/10 07:38:55;;;;;;;8.55;5.68;;;;;;;-143.21;70.31;71144.25;5070649;28;20186;-81
2023/06/10 07:41:25;;;;;;;6.70;5.05;;;;;;;-143.21;69.98;71144.25;5072067;28;20289;-81
2023/06/10 07:43:54;;;;;;;15.27;5.60;;;;;;;-143.21;69.40;71120.47;5074586;28;20196;-81
2023/06/10 07:46:21;;;;;;;7.32;5.60;;;;;;;-143.21;67.61;71118.50;5074148;28;20958;-81
2023/06/10 07:48:48;;;;;;;5.97;4.85;;;;;;;-143.21;67.67;71114.53;5074498;28;20274;-81
2023/06/10 07:51:16;;;;;;;9.82;5.18;;;;;;;-143.21;66.92;71096.69;5073481;28;20288;-81
2023/06/10 07:53:43;;;;;;;8.07;5.18;;;;;;;-143.21;66.72;71086.75;5062548;28;20229;-81
2023/06/10 07:56:11;;;;;;;7.10;5.32;;;;;;;-143.21;66.74;71080.81;5053310;28;20229;-81
2023/06/10 07:58:37;;;;;;;8.50;5.93;;;;;;;-143.21;67.05;71076.84;5054432;28;20201;-81
2023/06/10 08:01:04;;;;;;;8.60;5.75;;;;;;;-143.21;67.74;71068.94;5054101;28;20721;-81
2023/06/10 08:03:31;;;;;;;13.55;6.05;;;;;;;-143.21;67.40;71062.97;5053898;28;20213;-77
2023/06/10 08:05:58;;;;;;;9.40;5.60;;;;;;;-143.21;66.88;71062.97;5053850;28;20190;-77
2023/06/10 08:08:25;;;;;;;11.23;5.85;;;;;;;-143.21;66.93;71066.94;5053503;28;20194;-78
2023/06/10 08:10:51;;;;;;;9.68;5.80;;;;;;;-143.21;67.60;71059.00;5053793;28;20198;-78
2023/06/10 08:13:20;;;;;;;7.70;5.40;;;;;;;-143.21;68.01;71053.06;5053575;28;20205;-78
2023/06/10 08:15:47;;;;;;;10.55;5.55;;;;;;;-143.21;67.04;71047.13;5053320;28;20649;-80
2023/06/10 08:18:14;;;;;;;8.70;4.97;;;;;;;-143.21;64.99;71043.16;5053471;28;20731;-79
2023/06/10 08:20:41;;;;;;;8.25;5.25;;;;;;;-143.21;63.82;71029.28;5054493;28;20285;-78
2023/06/10 08:23:08;;;;;;;8.75;5.15;;;;;;;-143.21;63.79;71027.28;5065379;28;20209;-79
2023/06/10 08:25:34;;;;;;;7.38;4.80;;;;;;;-143.21;63.96;71017.38;5073337;28;20208;-79
2023/06/10 08:28:01;;;;;;;8.45;5.60;;;;;;;-143.21;64.56;71015.41;5073039;28;20656;-78
2023/06/10 08:30:30;;;;;;;7.50;4.90;;;;;;;-143.21;63.49;71023.34;5073015;28;20196;-78
2023/06/10 08:32:57;;;;;;;7.78;4.97;;;;;;;-143.21;63.26;71017.38;5073087;28;20229;-78
2023/06/10 08:35:23;;;;;;;9.65;4.93;;;;;;;-143.21;62.65;71007.47;5073545;28;20284;-77
2023/06/10 08:37:50;;;;;;;8.23;5.00;;;;;;;-143.21;62.11;71003.50;5073169;28;20221;-81
2023/06/10 08:40:17;;;;;;;7.78;4.75;;;;;;;-143.21;61.70;70991.63;5073633;28;20193;-81
2023/06/10 08:42:49;;;;;;;9.70;4.65;;;;;;;-143.21;62.33;70989.63;5073336;28;20591;-82
2023/06/10 08:45:18;;;;;;;5.35;4.75;;;;;;;-143.21;62.31;70987.66;5073767;28;20201;-81
2023/06/10 08:47:51;;;;;;;6.03;4.35;;;;;;;-143.21;60.55;70983.69;5073394;28;20700;-81
2023/06/10 08:50:19;;;;;;;7.97;4.38;;;;;;;-143.21;60.51;70977.72;5073600;28;20228;-81
2023/06/10 08:52:49;;;;;;;8.15;4.40;;;;;;;-143.21;60.14;70959.91;5064019;28;20250;-81
2023/06/10 08:55:25;;;;;;;4.97;3.65;;;;;;;-143.21;60.81;70949.97;5053195;28;20612;-82
2023/06/10 08:57:53;;;;;;;7.40;4.35;;;;;;;-143.21;59.84;70930.16;5053552;28;20238;-80
2023/06/10 09:00:20;;;;;;;6.35;4.20;;;;;;;-143.21;59.24;70918.25;5053202;28;20237;-81
2023/06/10 09:02:48;;;;;;;7.25;4.20;;;;;;;-143.21;59.19;70904.38;5053522;28;20194;-80
2023/06/10 09:05:16;;;;;;;8.40;4.30;;;;;;;-143.21;58.78;70892.50;5053404;28;20194;-82
2023/06/10 09:07:43;;;;;;;5.90;4.10;;;;;;;-143.21;58.86;70876.63;5053439;28;20194;-82
2023/06/10 09:10:12;;;;;;;7.00;4.40;;;;;;;-143.21;57.95;70876.63;5052351;28;20205;-81
2023/06/10 09:12:38;;;;;;;6.03;4.43;;;;;;;-143.21;58.84;70892.50;5053220;28;20198;-81
2023/06/10 09:15:07;;;;;;;6.25;4.85;;;;;;;-143.21;58.83;70878.63;5052963;28;20229;-82
2023/06/10 09:17:36;;;;;;;5.80;4.22;;;;;;;-143.21;59.36;70890.50;5053332;28;20214;-80
2023/06/10 09:20:04;;;;;;;8.32;4.35;;;;;;;-143.21;59.51;70884.56;5052813;28;20201;-81
2023/06/10 09:22:31;;;;;;;7.85;4.47;;;;;;;-143.21;58.63;70862.75;5059743;28;20243;-81
2023/06/10 09:25:05;;;;;;;4.82;4.05;;;;;;;-143.21;59.09;70838.97;5072650;28;20593;-81
2023/06/10 09:27:32;;;;;;;4.40;3.90;;;;;;;-143.21;58.56;70817.16;5072620;28;20648;-81
2023/06/10 09:29:59;;;;;;;5.10;4.28;;;;;;;-143.21;57.22;70811.22;5072513;28;20189;-80
2023/06/10 09:32:27;;;;;;;7.53;4.30;;;;;;;-143.21;57.41;70807.25;5054269;28;20226;-80
2023/06/10 09:34:54;;;;;;;9.90;4.55;;;;;;;-143.21;57.98;70807.25;5052100;28;20201;-80
2023/06/10 09:37:23;;;;;;;6.30;4.50;;;;;;;-143.21;56.95;70805.28;5052352;28;20218;-81
2023/06/10 09:40:06;;;;;;;5.47;4.43;;;;;;;-143.21;56.46;70799.31;5052206;28;20194;-80
2023/06/10 09:42:35;;;;;;;7.88;4.22;;;;;;;-143.21;55.38;70797.34;5064846;28;20193;-81
2023/06/10 09:45:02;;;;;;;5.00;4.03;;;;;;;-143.21;56.66;70785.44;5058170;28;20194;-80
2023/06/10 09:47:29;;;;;;;6.85;4.72;;;;;;;-143.21;56.77;70767.63;5057523;28;20199;-81
2023/06/10 09:49:56;;;;;;;6.72;4.30;;;;;;;-143.21;56.29;70753.72;5052507;28;20198;-80
2023/06/10 09:52:25;;;;;;;7.55;4.60;;;;;;;-143.21;55.69;70733.91;5058582;28;20198;-80
2023/06/10 09:54:52;;;;;;;5.18;4.10;;;;;;;-143.21;54.98;70710.13;5072353;28;20256;-81
2023/06/10 09:57:20;;;;;;;5.65;4.65;;;;;;;-143.21;54.90;70694.25;5072964;28;20306;-80
2023/06/10 09:59:47;;;;;;;7.68;4.75;;;;;;;-143.21;54.19;70674.44;5072237;28;20197;-81
2023/06/10 10:02:16;;;;;;;5.95;3.67;;;;;;;-143.21;51.88;70668.50;5072602;28;20243;-80
2023/06/10 10:04:43;;;;;;;7.00;3.72;;;;;;;-143.21;52.53;70652.66;5071986;28;20638;-80
2023/06/10 10:07:10;;;;;;;4.45;3.53;;;;;;;-143.21;54.22;70628.84;5072371;28;20231;-80
2023/06/10 10:09:39;;;;;;;8.75;4.07;;;;;;;-143.21;52.51;70599.13;5072639;28;20205;-82
2023/06/10 10:12:10;;;;;;;4.18;3.50;;;;;;;-143.21;52.58;70585.25;5072188;28;20201;-82
2023/06/10 10:14:38;;;;;;;6.28;3.90;;;;;;;-143.21;51.84;70563.44;5072373;28;20192;-82
2023/06/10 10:17:08;;;;;;;4.35;3.67;;;;;;;-143.21;51.45;70553.53;5072009;28;20699;-81
2023/06/10 10:19:38;;;;;;;4.68;3.72;;;;;;;-143.21;50.64;70531.72;5071977;28;20185;-81
2023/06/10 10:22:09;;;;;;;4.25;3.75;;;;;;;-143.21;51.51;70498.03;5068485;28;20201;-81
2023/06/10 10:24:43;;;;;;;5.60;3.95;;;;;;;-143.21;50.49;70464.34;5051427;28;20217;-81
2023/06/10 10:27:18;;;;;;;5.90;3.60;;;;;;;-143.21;49.59;70436.59;5051612;28;20549;-81
2023/06/10 10:29:48;;;;;;;6.68;3.47;;;;;;;-143.21;49.27;70422.72;5051778;28;20181;-83
2023/06/10 10:32:17;;;;;;;4.45;3.80;;;;;;;-143.21;48.68;70410.81;5051421;28;20234;-81
2023/06/10 10:34:52;;;;;;;5.40;3.80;;;;;;;-143.21;48.36;70400.91;5050504;28;20661;-82
2023/06/10 10:37:19;;;;;;;7.00;3.28;;;;;;;-143.21;47.69;70392.97;5050428;28;20217;-82
2023/06/10 10:39:48;;;;;;;12.70;3.40;;;;;;;-143.21;47.63;70381.09;5050508;28;20220;-82
2023/06/10 10:42:15;;;;;;;6.45;3.70;;;;;;;-143.21;48.23;70357.31;5050801;28;20194;-83
2023/06/10 10:44:43;;;;;;;6.25;3.47;;;;;;;-143.21;46.55;70335.50;5051252;28;20205;-82
2023/06/10 10:47:10;;;;;;;3.67;3.25;;;;;;;-143.21;47.00;70323.63;5051443;28;20661;-82
2023/06/10 10:49:39;;;;;;;4.40;3.40;;;;;;;-143.21;46.28;70307.75;5050022;28;20957;-82
2023/06/10 10:52:06;;;;;;;3.85;2.97;;;;;;;-143.21;46.05;70303.78;5050442;28;20292;-82
2023/06/10 10:54:37;;;;;;;5.82;3.47;;;;;;;-143.21;45.43;70305.78;5052637;28;20198;-84
2023/06/10 10:57:19;;;;;;;4.22;3.40;;;;;;;-143.21;45.01;70276.03;5051492;28;20202;-82
2023/06/10 10:59:56;;;;;;;4.63;3.55;;;;;;;-143.21;45.79;70262.19;5051269;28;20579;-82
2023/06/10 11:02:42;;;;;;;4.25;3.50;;;;;;;-143.21;45.30;70250.28;5051702;28;20194;-81
2023/06/10 11:05:11;;;;;;;5.43;3.30;;;;;;;-143.21;42.70;70242.34;5051102;28;20570;-81
2023/06/10 11:07:38;;;;;;;3.83;2.90;;;;;;;-143.21;43.30;70238.38;5051086;28;20186;-82
2023/06/10 11:10:09;;;;;;;4.40;3.10;;;;;;;-143.21;42.88;70218.56;5052127;28;20696;-83
2023/06/10 11:12:59;;;;;;;3.85;2.90;;;;;;;-143.21;42.20;70214.59;5051274;28;20205;-83
2023/06/10 11:15:27;;;;;;;4.13;3.35;;;;;;;-143.21;41.47;70192.81;5047218;28;20194;-83